sim
Sign-in with your pilot id or email,
or register
Callsign
Passwort

Schedule Details

Flight Number: OEF9066
Departure: New York John F. Kennedy International Airport (KJFK) at 05:20
Arrival: Munich Airport (EDDM) at 12:20

Weather Information
Getting current METAR information for KJFK 210451Z 05007KT 10SM FEW040 09/02 A3055
Getting current METAR information for EDDM 210520Z VRB01KT 9999 1500NE R08L/0650N BCFG NSC 07/07 Q1016 NOSIG

Schedule Frequency

Route Map